KMML/MML METAR and TAF weather

Enter ICAO airport designator
Station Type Date Time Source
KMML METAR 2019/08/19 00:56 UTC NOAA

KMML 190056Z AUTO 06004KT 10SM CLR 19/13 A2991 RMK AO2 SLP128 T01940128


Station Type Date Time Source
KMML Decoded METAR 2019/08/19 00:56 UTC NOAA

Station name not available
Aug 18, 2019 - 08:56 PM EDT / 2019.08.19 0056 UTC
Wind: from the ENE (060 degrees) at 5 MPH (4 KT):0
Visibility: 10 mile(s):0
Sky conditions: clear
Temperature: 66.9 F (19.4 C)
Dew Point: 55.0 F (12.8 C)
Relative Humidity: 65%
Pressure (altimeter): 29.91 in. Hg (1012 hPa)
ob: KMML 190056Z AUTO 06004KT 10SM CLR 19/13 A2991 RMK AO2 SLP128 T01940128
cycle: 1

Station Type Date Time Source
KMML TAF UTC NOAA

Error!

Example: see airport list